sensor_id;sensor_type;location;lat;lon;timestamp;P1;durP1;ratioP1;P2;durP2;ratioP2
18689;SDS011;9782;52.930;15.562;2022-10-16T00:01:27;82.82;;;27.98;;
18689;SDS011;9782;52.930;15.562;2022-10-16T00:03:59;81.78;;;27.95;;
18689;SDS011;9782;52.930;15.562;2022-10-16T00:06:40;87.70;;;28.80;;
18689;SDS011;9782;52.930;15.562;2022-10-16T00:09:14;98.70;;;30.27;;
18689;SDS011;9782;52.930;15.562;2022-10-16T00:11:42;96.70;;;29.77;;
18689;SDS011;9782;52.930;15.562;2022-10-16T00:14:22;98.30;;;30.27;;
18689;SDS011;9782;52.930;15.562;2022-10-16T00:16:55;97.28;;;30.13;;
18689;SDS011;9782;52.930;15.562;2022-10-16T00:19:22;97.45;;;29.95;;
18689;SDS011;9782;52.930;15.562;2022-10-16T00:21:51;92.55;;;29.38;;
18689;SDS011;9782;52.930;15.562;2022-10-16T00:24:18;83.93;;;28.10;;
18689;SDS011;9782;52.930;15.562;2022-10-16T00:26:45;97.65;;;30.05;;
18689;SDS011;9782;52.930;15.562;2022-10-16T00:29:15;91.15;;;29.17;;
18689;SDS011;9782;52.930;15.562;2022-10-16T00:31:49;101.22;;;30.23;;
18689;SDS011;9782;52.930;15.562;2022-10-16T00:34:20;84.80;;;28.15;;
18689;SDS011;9782;52.930;15.562;2022-10-16T00:36:55;93.07;;;29.20;;
18689;SDS011;9782;52.930;15.562;2022-10-16T00:39:24;90.38;;;29.08;;
18689;SDS011;9782;52.930;15.562;2022-10-16T00:42:01;75.55;;;26.85;;
18689;SDS011;9782;52.930;15.562;2022-10-16T00:44:48;75.38;;;26.90;;
18689;SDS011;9782;52.930;15.562;2022-10-16T00:47:19;74.97;;;26.75;;
18689;SDS011;9782;52.930;15.562;2022-10-16T00:49:49;82.85;;;27.92;;
18689;SDS011;9782;52.930;15.562;2022-10-16T00:52:20;77.00;;;27.00;;
18689;SDS011;9782;52.930;15.562;2022-10-16T00:54:47;78.18;;;27.35;;
18689;SDS011;9782;52.930;15.562;2022-10-16T00:57:16;88.18;;;28.88;;
18689;SDS011;9782;52.930;15.562;2022-10-16T00:59:43;81.07;;;27.83;;
18689;SDS011;9782;52.930;15.562;2022-10-16T01:02:12;90.57;;;28.88;;
18689;SDS011;9782;52.930;15.562;2022-10-16T01:04:41;74.97;;;26.77;;
18689;SDS011;9782;52.930;15.562;2022-10-16T01:07:12;78.00;;;27.17;;
18689;SDS011;9782;52.930;15.562;2022-10-16T01:09:53;78.38;;;27.35;;
18689;SDS011;9782;52.930;15.562;2022-10-16T01:12:29;73.60;;;26.58;;
18689;SDS011;9782;52.930;15.562;2022-10-16T01:15:04;73.82;;;26.58;;
18689;SDS011;9782;52.930;15.562;2022-10-16T01:17:40;70.57;;;26.02;;
18689;SDS011;9782;52.930;15.562;2022-10-16T01:20:13;82.82;;;28.13;;
18689;SDS011;9782;52.930;15.562;2022-10-16T01:22:59;72.20;;;26.35;;
18689;SDS011;9782;52.930;15.562;2022-10-16T01:25:36;75.93;;;26.90;;
18689;SDS011;9782;52.930;15.562;2022-10-16T01:28:17;72.57;;;26.48;;
18689;SDS011;9782;52.930;15.562;2022-10-16T01:30:48;83.63;;;28.13;;
18689;SDS011;9782;52.930;15.562;2022-10-16T01:33:20;82.10;;;28.00;;
18689;SDS011;9782;52.930;15.562;2022-10-16T01:35:52;83.78;;;28.25;;
18689;SDS011;9782;52.930;15.562;2022-10-16T01:38:22;85.40;;;28.35;;
18689;SDS011;9782;52.930;15.562;2022-10-16T01:40:56;84.95;;;28.38;;
18689;SDS011;9782;52.930;15.562;2022-10-16T01:43:33;85.55;;;28.40;;
18689;SDS011;9782;52.930;15.562;2022-10-16T01:46:02;84.25;;;28.08;;
18689;SDS011;9782;52.930;15.562;2022-10-16T01:48:30;84.97;;;28.33;;
18689;SDS011;9782;52.930;15.562;2022-10-16T01:50:59;83.68;;;28.20;;
18689;SDS011;9782;52.930;15.562;2022-10-16T01:53:31;83.22;;;28.02;;
18689;SDS011;9782;52.930;15.562;2022-10-16T01:55:59;79.70;;;27.55;;
18689;SDS011;9782;52.930;15.562;2022-10-16T01:58:29;81.35;;;27.77;;
18689;SDS011;9782;52.930;15.562;2022-10-16T02:01:00;79.32;;;27.42;;
18689;SDS011;9782;52.930;15.562;2022-10-16T02:03:29;80.43;;;27.58;;
18689;SDS011;9782;52.930;15.562;2022-10-16T02:05:58;78.35;;;27.27;;
18689;SDS011;9782;52.930;15.562;2022-10-16T02:08:26;77.25;;;27.23;;
18689;SDS011;9782;52.930;15.562;2022-10-16T02:10:56;77.25;;;26.95;;
18689;SDS011;9782;52.930;15.562;2022-10-16T02:13:25;73.75;;;26.60;;
18689;SDS011;9782;52.930;15.562;2022-10-16T02:15:57;76.50;;;26.95;;
18689;SDS011;9782;52.930;15.562;2022-10-16T02:18:25;74.55;;;26.73;;
18689;SDS011;9782;52.930;15.562;2022-10-16T02:20:55;76.13;;;26.95;;
18689;SDS011;9782;52.930;15.562;2022-10-16T02:23:28;73.03;;;26.60;;
18689;SDS011;9782;52.930;15.562;2022-10-16T02:26:01;72.95;;;26.67;;
18689;SDS011;9782;52.930;15.562;2022-10-16T02:28:33;70.53;;;26.08;;
18689;SDS011;9782;52.930;15.562;2022-10-16T02:31:07;68.57;;;25.92;;
18689;SDS011;9782;52.930;15.562;2022-10-16T02:33:37;67.32;;;25.67;;
18689;SDS011;9782;52.930;15.562;2022-10-16T02:36:07;69.57;;;26.08;;
18689;SDS011;9782;52.930;15.562;2022-10-16T02:38:34;68.10;;;26.00;;
18689;SDS011;9782;52.930;15.562;2022-10-16T02:41:04;74.00;;;26.88;;
18689;SDS011;9782;52.930;15.562;2022-10-16T02:43:33;79.70;;;27.52;;
18689;SDS011;9782;52.930;15.562;2022-10-16T02:46:00;82.22;;;27.83;;
18689;SDS011;9782;52.930;15.562;2022-10-16T02:48:28;82.68;;;27.95;;
18689;SDS011;9782;52.930;15.562;2022-10-16T02:50:55;81.40;;;27.85;;
18689;SDS011;9782;52.930;15.562;2022-10-16T02:53:22;80.60;;;27.55;;
18689;SDS011;9782;52.930;15.562;2022-10-16T02:55:49;74.35;;;26.83;;
18689;SDS011;9782;52.930;15.562;2022-10-16T02:58:16;79.53;;;27.35;;
18689;SDS011;9782;52.930;15.562;2022-10-16T03:00:43;78.65;;;27.33;;
18689;SDS011;9782;52.930;15.562;2022-10-16T03:03:11;76.95;;;27.33;;
18689;SDS011;9782;52.930;15.562;2022-10-16T03:05:39;71.80;;;26.45;;
18689;SDS011;9782;52.930;15.562;2022-10-16T03:08:06;76.93;;;27.15;;
18689;SDS011;9782;52.930;15.562;2022-10-16T03:10:33;60.30;;;24.67;;
18689;SDS011;9782;52.930;15.562;2022-10-16T03:13:00;70.57;;;26.23;;
18689;SDS011;9782;52.930;15.562;2022-10-16T03:15:27;71.88;;;26.45;;
18689;SDS011;9782;52.930;15.562;2022-10-16T03:17:55;72.28;;;26.40;;
18689;SDS011;9782;52.930;15.562;2022-10-16T03:20:24;71.03;;;26.33;;
18689;SDS011;9782;52.930;15.562;2022-10-16T03:22:52;66.00;;;25.58;;
18689;SDS011;9782;52.930;15.562;2022-10-16T03:25:20;64.40;;;25.27;;
18689;SDS011;9782;52.930;15.562;2022-10-16T03:27:47;61.00;;;24.58;;
18689;SDS011;9782;52.930;15.562;2022-10-16T03:30:14;65.03;;;25.30;;
18689;SDS011;9782;52.930;15.562;2022-10-16T03:32:41;64.90;;;25.40;;
18689;SDS011;9782;52.930;15.562;2022-10-16T03:35:09;55.33;;;23.63;;
18689;SDS011;9782;52.930;15.562;2022-10-16T03:37:36;70.55;;;26.35;;
18689;SDS011;9782;52.930;15.562;2022-10-16T03:40:05;75.10;;;27.23;;
18689;SDS011;9782;52.930;15.562;2022-10-16T03:42:33;73.72;;;27.00;;
18689;SDS011;9782;52.930;15.562;2022-10-16T03:45:00;71.95;;;26.63;;
18689;SDS011;9782;52.930;15.562;2022-10-16T03:47:27;72.35;;;26.75;;
18689;SDS011;9782;52.930;15.562;2022-10-16T03:49:54;68.72;;;25.95;;
18689;SDS011;9782;52.930;15.562;2022-10-16T03:52:21;69.72;;;26.20;;
18689;SDS011;9782;52.930;15.562;2022-10-16T03:54:48;68.28;;;26.20;;
18689;SDS011;9782;52.930;15.562;2022-10-16T03:57:17;70.50;;;26.48;;
18689;SDS011;9782;52.930;15.562;2022-10-16T03:59:45;70.05;;;26.40;;
18689;SDS011;9782;52.930;15.562;2022-10-16T04:02:13;69.65;;;26.35;;
18689;SDS011;9782;52.930;15.562;2022-10-16T04:04:40;67.75;;;26.15;;
18689;SDS011;9782;52.930;15.562;2022-10-16T04:07:07;70.93;;;26.55;;
18689;SDS011;9782;52.930;15.562;2022-10-16T04:09:34;69.30;;;26.38;;
18689;SDS011;9782;52.930;15.562;2022-10-16T04:12:01;66.75;;;25.63;;
18689;SDS011;9782;52.930;15.562;2022-10-16T04:14:30;68.40;;;26.10;;
18689;SDS011;9782;52.930;15.562;2022-10-16T04:16:57;76.00;;;27.50;;
18689;SDS011;9782;52.930;15.562;2022-10-16T04:19:24;69.88;;;26.40;;
18689;SDS011;9782;52.930;15.562;2022-10-16T04:21:51;65.90;;;25.60;;
18689;SDS011;9782;52.930;15.562;2022-10-16T04:24:18;71.13;;;26.80;;
18689;SDS011;9782;52.930;15.562;2022-10-16T04:26:45;72.18;;;27.05;;
18689;SDS011;9782;52.930;15.562;2022-10-16T04:29:12;63.20;;;25.27;;
18689;SDS011;9782;52.930;15.562;2022-10-16T04:31:41;66.15;;;25.95;;
18689;SDS011;9782;52.930;15.562;2022-10-16T04:34:08;72.93;;;27.25;;
18689;SDS011;9782;52.930;15.562;2022-10-16T04:36:35;72.07;;;27.08;;
18689;SDS011;9782;52.930;15.562;2022-10-16T04:39:02;71.75;;;27.00;;
18689;SDS011;9782;52.930;15.562;2022-10-16T04:41:29;67.10;;;26.10;;
18689;SDS011;9782;52.930;15.562;2022-10-16T04:43:56;64.50;;;25.42;;
18689;SDS011;9782;52.930;15.562;2022-10-16T04:46:23;63.80;;;25.58;;
18689;SDS011;9782;52.930;15.562;2022-10-16T04:48:52;62.13;;;24.95;;
18689;SDS011;9782;52.930;15.562;2022-10-16T04:51:19;64.63;;;25.63;;
18689;SDS011;9782;52.930;15.562;2022-10-16T04:53:46;65.63;;;25.60;;
18689;SDS011;9782;52.930;15.562;2022-10-16T04:56:13;61.65;;;25.05;;
18689;SDS011;9782;52.930;15.562;2022-10-16T04:58:40;58.85;;;24.45;;
18689;SDS011;9782;52.930;15.562;2022-10-16T05:01:08;67.63;;;26.10;;
18689;SDS011;9782;52.930;15.562;2022-10-16T05:03:35;66.38;;;25.73;;
18689;SDS011;9782;52.930;15.562;2022-10-16T05:06:04;67.07;;;26.02;;
18689;SDS011;9782;52.930;15.562;2022-10-16T05:08:32;63.78;;;25.23;;
18689;SDS011;9782;52.930;15.562;2022-10-16T05:10:59;55.22;;;23.58;;
18689;SDS011;9782;52.930;15.562;2022-10-16T05:13:26;59.50;;;24.05;;
18689;SDS011;9782;52.930;15.562;2022-10-16T05:15:53;65.13;;;25.42;;
18689;SDS011;9782;52.930;15.562;2022-10-16T05:18:20;68.22;;;25.85;;
18689;SDS011;9782;52.930;15.562;2022-10-16T05:20:47;70.13;;;26.05;;
18689;SDS011;9782;52.930;15.562;2022-10-16T05:23:16;66.53;;;25.88;;
18689;SDS011;9782;52.930;15.562;2022-10-16T05:25:43;64.80;;;25.30;;
18689;SDS011;9782;52.930;15.562;2022-10-16T05:28:17;63.47;;;25.10;;
18689;SDS011;9782;52.930;15.562;2022-10-16T05:30:44;62.67;;;24.95;;
18689;SDS011;9782;52.930;15.562;2022-10-16T05:33:11;67.20;;;25.70;;
18689;SDS011;9782;52.930;15.562;2022-10-16T05:35:39;69.85;;;26.30;;
18689;SDS011;9782;52.930;15.562;2022-10-16T05:38:06;67.70;;;26.08;;
18689;SDS011;9782;52.930;15.562;2022-10-16T05:40:34;68.47;;;26.05;;
18689;SDS011;9782;52.930;15.562;2022-10-16T05:43:01;63.53;;;25.15;;
18689;SDS011;9782;52.930;15.562;2022-10-16T05:45:28;64.40;;;25.27;;
18689;SDS011;9782;52.930;15.562;2022-10-16T05:47:55;64.32;;;25.33;;
18689;SDS011;9782;52.930;15.562;2022-10-16T05:50:23;58.33;;;24.00;;
18689;SDS011;9782;52.930;15.562;2022-10-16T05:52:52;57.53;;;23.85;;
18689;SDS011;9782;52.930;15.562;2022-10-16T05:55:23;54.78;;;23.50;;
18689;SDS011;9782;52.930;15.562;2022-10-16T05:58:02;56.65;;;23.88;;
18689;SDS011;9782;52.930;15.562;2022-10-16T06:00:29;55.70;;;23.58;;
18689;SDS011;9782;52.930;15.562;2022-10-16T06:02:56;57.72;;;23.98;;
18689;SDS011;9782;52.930;15.562;2022-10-16T06:05:37;58.72;;;24.17;;
18689;SDS011;9782;52.930;15.562;2022-10-16T06:08:05;61.17;;;24.60;;
18689;SDS011;9782;52.930;15.562;2022-10-16T06:10:42;59.78;;;24.35;;
18689;SDS011;9782;52.930;15.562;2022-10-16T06:13:17;59.53;;;24.40;;
18689;SDS011;9782;52.930;15.562;2022-10-16T06:15:47;58.35;;;24.05;;
18689;SDS011;9782;52.930;15.562;2022-10-16T06:18:41;54.05;;;23.52;;
18689;SDS011;9782;52.930;15.562;2022-10-16T06:21:09;56.70;;;23.92;;
18689;SDS011;9782;52.930;15.562;2022-10-16T06:23:38;55.30;;;23.77;;
18689;SDS011;9782;52.930;15.562;2022-10-16T06:26:05;58.30;;;24.27;;
18689;SDS011;9782;52.930;15.562;2022-10-16T06:28:35;56.45;;;24.02;;
18689;SDS011;9782;52.930;15.562;2022-10-16T06:31:08;53.67;;;23.40;;
18689;SDS011;9782;52.930;15.562;2022-10-16T06:33:37;53.85;;;23.45;;
18689;SDS011;9782;52.930;15.562;2022-10-16T06:36:05;53.97;;;23.45;;
18689;SDS011;9782;52.930;15.562;2022-10-16T06:38:37;54.55;;;23.50;;
18689;SDS011;9782;52.930;15.562;2022-10-16T06:41:08;52.42;;;23.08;;
18689;SDS011;9782;52.930;15.562;2022-10-16T06:43:41;50.38;;;22.85;;
18689;SDS011;9782;52.930;15.562;2022-10-16T06:46:12;48.05;;;22.35;;
18689;SDS011;9782;52.930;15.562;2022-10-16T06:48:58;47.33;;;22.23;;
18689;SDS011;9782;52.930;15.562;2022-10-16T06:51:25;46.67;;;22.00;;
18689;SDS011;9782;52.930;15.562;2022-10-16T06:53:53;39.83;;;19.90;;
18689;SDS011;9782;52.930;15.562;2022-10-16T06:56:27;46.60;;;21.90;;
18689;SDS011;9782;52.930;15.562;2022-10-16T06:59:13;46.78;;;21.85;;
18689;SDS011;9782;52.930;15.562;2022-10-16T07:01:41;45.67;;;21.70;;
18689;SDS011;9782;52.930;15.562;2022-10-16T07:04:09;42.53;;;21.02;;
18689;SDS011;9782;52.930;15.562;2022-10-16T07:06:36;42.17;;;20.98;;
18689;SDS011;9782;52.930;15.562;2022-10-16T07:09:05;41.25;;;20.67;;
18689;SDS011;9782;52.930;15.562;2022-10-16T07:11:36;40.67;;;20.50;;
18689;SDS011;9782;52.930;15.562;2022-10-16T07:14:04;42.85;;;21.17;;
18689;SDS011;9782;52.930;15.562;2022-10-16T07:16:33;30.10;;;17.63;;
18689;SDS011;9782;52.930;15.562;2022-10-16T07:19:01;46.40;;;21.83;;
18689;SDS011;9782;52.930;15.562;2022-10-16T07:21:29;47.85;;;22.25;;
18689;SDS011;9782;52.930;15.562;2022-10-16T07:24:02;47.45;;;22.27;;
18689;SDS011;9782;52.930;15.562;2022-10-16T07:26:37;48.88;;;22.48;;
18689;SDS011;9782;52.930;15.562;2022-10-16T07:29:05;47.67;;;22.35;;
18689;SDS011;9782;52.930;15.562;2022-10-16T07:31:36;50.80;;;23.15;;
18689;SDS011;9782;52.930;15.562;2022-10-16T07:43:52;49.33;;;23.17;;
18689;SDS011;9782;52.930;15.562;2022-10-16T07:48:48;58.92;;;25.17;;
18689;SDS011;9782;52.930;15.562;2022-10-16T07:51:25;71.95;;;27.10;;
18689;SDS011;9782;52.930;15.562;2022-10-16T07:54:16;76.47;;;27.93;;
18689;SDS011;9782;52.930;15.562;2022-10-16T07:56:43;84.53;;;28.58;;
18689;SDS011;9782;52.930;15.562;2022-10-16T08:01:57;40.53;;;22.42;;
18689;SDS011;9782;52.930;15.562;2022-10-16T08:11:17;64.13;;;26.63;;
18689;SDS011;9782;52.930;15.562;2022-10-16T08:34:06;59.75;;;25.85;;
18689;SDS011;9782;52.930;15.562;2022-10-16T08:36:35;57.53;;;25.85;;
18689;SDS011;9782;52.930;15.562;2022-10-16T08:39:16;60.47;;;26.40;;
18689;SDS011;9782;52.930;15.562;2022-10-16T08:42:01;62.83;;;26.48;;
18689;SDS011;9782;52.930;15.562;2022-10-16T08:45:17;63.20;;;26.65;;
18689;SDS011;9782;52.930;15.562;2022-10-16T08:48:00;65.28;;;26.80;;
18689;SDS011;9782;52.930;15.562;2022-10-16T08:50:36;62.55;;;26.60;;
18689;SDS011;9782;52.930;15.562;2022-10-16T08:53:05;53.50;;;24.50;;
18689;SDS011;9782;52.930;15.562;2022-10-16T08:55:37;45.67;;;23.00;;
18689;SDS011;9782;52.930;15.562;2022-10-16T08:58:15;44.28;;;22.70;;
18689;SDS011;9782;52.930;15.562;2022-10-16T09:00:53;49.95;;;23.88;;
18689;SDS011;9782;52.930;15.562;2022-10-16T09:03:23;58.90;;;25.35;;
18689;SDS011;9782;52.930;15.562;2022-10-16T09:09:01;62.65;;;25.83;;
18689;SDS011;9782;52.930;15.562;2022-10-16T09:11:41;63.97;;;26.15;;
18689;SDS011;9782;52.930;15.562;2022-10-16T09:14:18;67.72;;;26.75;;
18689;SDS011;9782;52.930;15.562;2022-10-16T09:17:04;65.97;;;26.58;;
18689;SDS011;9782;52.930;15.562;2022-10-16T09:19:44;67.57;;;26.73;;
18689;SDS011;9782;52.930;15.562;2022-10-16T09:22:18;67.65;;;26.88;;
18689;SDS011;9782;52.930;15.562;2022-10-16T09:24:48;65.68;;;26.95;;
18689;SDS011;9782;52.930;15.562;2022-10-16T09:27:44;62.67;;;26.25;;
18689;SDS011;9782;52.930;15.562;2022-10-16T09:30:16;58.42;;;25.30;;
18689;SDS011;9782;52.930;15.562;2022-10-16T09:32:45;61.33;;;25.92;;
18689;SDS011;9782;52.930;15.562;2022-10-16T09:35:31;53.42;;;24.48;;
18689;SDS011;9782;52.930;15.562;2022-10-16T09:38:03;53.60;;;24.42;;
18689;SDS011;9782;52.930;15.562;2022-10-16T09:40:32;52.95;;;24.23;;
18689;SDS011;9782;52.930;15.562;2022-10-16T09:43:03;53.13;;;24.33;;
18689;SDS011;9782;52.930;15.562;2022-10-16T09:45:41;38.22;;;21.17;;
18689;SDS011;9782;52.930;15.562;2022-10-16T09:50:38;37.42;;;21.02;;
18689;SDS011;9782;52.930;15.562;2022-10-16T09:53:10;30.70;;;19.48;;
18689;SDS011;9782;52.930;15.562;2022-10-16T09:55:50;31.83;;;19.92;;
18689;SDS011;9782;52.930;15.562;2022-10-16T09:58:49;35.03;;;20.20;;
18689;SDS011;9782;52.930;15.562;2022-10-16T10:04:25;35.80;;;20.33;;
18689;SDS011;9782;52.930;15.562;2022-10-16T10:07:03;37.47;;;20.95;;
18689;SDS011;9782;52.930;15.562;2022-10-16T10:09:31;29.40;;;18.88;;
18689;SDS011;9782;52.930;15.562;2022-10-16T10:12:03;35.63;;;20.13;;
18689;SDS011;9782;52.930;15.562;2022-10-16T10:17:08;61.53;;;25.40;;
18689;SDS011;9782;52.930;15.562;2022-10-16T10:19:41;37.20;;;21.02;;
18689;SDS011;9782;52.930;15.562;2022-10-16T10:25:14;32.05;;;19.63;;
18689;SDS011;9782;52.930;15.562;2022-10-16T10:27:49;29.95;;;18.80;;
18689;SDS011;9782;52.930;15.562;2022-10-16T10:30:29;35.10;;;20.15;;
18689;SDS011;9782;52.930;15.562;2022-10-16T10:33:12;33.22;;;19.77;;
18689;SDS011;9782;52.930;15.562;2022-10-16T10:35:53;35.50;;;20.30;;
18689;SDS011;9782;52.930;15.562;2022-10-16T10:38:31;32.97;;;19.80;;
18689;SDS011;9782;52.930;15.562;2022-10-16T10:41:10;39.15;;;21.23;;
18689;SDS011;9782;52.930;15.562;2022-10-16T10:44:04;47.13;;;22.80;;
18689;SDS011;9782;52.930;15.562;2022-10-16T10:46:42;39.92;;;21.25;;
18689;SDS011;9782;52.930;15.562;2022-10-16T10:49:23;59.83;;;25.05;;
18689;SDS011;9782;52.930;15.562;2022-10-16T10:52:02;32.25;;;19.67;;
18689;SDS011;9782;52.930;15.562;2022-10-16T10:54:41;26.60;;;18.05;;
18689;SDS011;9782;52.930;15.562;2022-10-16T10:57:19;30.50;;;19.05;;
18689;SDS011;9782;52.930;15.562;2022-10-16T11:00:02;29.92;;;19.15;;
18689;SDS011;9782;52.930;15.562;2022-10-16T11:02:44;30.30;;;19.17;;
18689;SDS011;9782;52.930;15.562;2022-10-16T11:05:23;29.15;;;18.77;;
18689;SDS011;9782;52.930;15.562;2022-10-16T11:08:00;30.40;;;19.13;;
18689;SDS011;9782;52.930;15.562;2022-10-16T11:10:42;30.70;;;19.33;;
18689;SDS011;9782;52.930;15.562;2022-10-16T11:13:19;32.47;;;19.63;;
18689;SDS011;9782;52.930;15.562;2022-10-16T11:15:57;34.40;;;20.05;;
18689;SDS011;9782;52.930;15.562;2022-10-16T11:18:27;34.40;;;20.08;;
18689;SDS011;9782;52.930;15.562;2022-10-16T11:21:13;33.08;;;19.90;;
18689;SDS011;9782;52.930;15.562;2022-10-16T11:23:43;32.53;;;19.60;;
18689;SDS011;9782;52.930;15.562;2022-10-16T11:26:17;33.38;;;19.95;;
18689;SDS011;9782;52.930;15.562;2022-10-16T11:28:48;33.47;;;19.85;;
18689;SDS011;9782;52.930;15.562;2022-10-16T11:31:17;35.20;;;20.33;;
18689;SDS011;9782;52.930;15.562;2022-10-16T11:33:51;32.53;;;19.65;;
18689;SDS011;9782;52.930;15.562;2022-10-16T11:36:28;29.75;;;19.05;;
18689;SDS011;9782;52.930;15.562;2022-10-16T11:39:02;30.85;;;19.50;;
18689;SDS011;9782;52.930;15.562;2022-10-16T11:41:39;27.13;;;18.33;;
18689;SDS011;9782;52.930;15.562;2022-10-16T11:44:18;27.23;;;18.38;;
18689;SDS011;9782;52.930;15.562;2022-10-16T11:46:58;27.08;;;18.25;;
18689;SDS011;9782;52.930;15.562;2022-10-16T11:49:32;22.88;;;17.05;;
18689;SDS011;9782;52.930;15.562;2022-10-16T11:52:03;25.27;;;18.35;;
18689;SDS011;9782;52.930;15.562;2022-10-16T11:54:39;27.67;;;18.73;;
18689;SDS011;9782;52.930;15.562;2022-10-16T11:57:14;25.98;;;17.90;;
18689;SDS011;9782;52.930;15.562;2022-10-16T11:59:46;27.63;;;18.40;;
18689;SDS011;9782;52.930;15.562;2022-10-16T12:02:37;28.05;;;18.38;;
18689;SDS011;9782;52.930;15.562;2022-10-16T12:05:16;29.27;;;18.77;;
18689;SDS011;9782;52.930;15.562;2022-10-16T12:07:51;31.15;;;18.92;;
18689;SDS011;9782;52.930;15.562;2022-10-16T12:10:27;31.30;;;19.02;;
18689;SDS011;9782;52.930;15.562;2022-10-16T12:12:56;34.08;;;19.52;;
18689;SDS011;9782;52.930;15.562;2022-10-16T12:15:24;38.05;;;20.63;;
18689;SDS011;9782;52.930;15.562;2022-10-16T12:17:53;42.53;;;21.52;;
18689;SDS011;9782;52.930;15.562;2022-10-16T12:20:22;43.17;;;21.52;;
18689;SDS011;9782;52.930;15.562;2022-10-16T12:22:54;43.70;;;22.00;;
18689;SDS011;9782;52.930;15.562;2022-10-16T12:25:25;44.47;;;21.77;;
18689;SDS011;9782;52.930;15.562;2022-10-16T12:27:55;43.97;;;21.83;;
18689;SDS011;9782;52.930;15.562;2022-10-16T12:30:24;46.38;;;22.35;;
18689;SDS011;9782;52.930;15.562;2022-10-16T12:32:54;46.55;;;22.27;;
18689;SDS011;9782;52.930;15.562;2022-10-16T12:35:24;45.35;;;22.10;;
18689;SDS011;9782;52.930;15.562;2022-10-16T12:38:03;44.88;;;21.90;;
18689;SDS011;9782;52.930;15.562;2022-10-16T12:40:39;46.83;;;22.40;;
18689;SDS011;9782;52.930;15.562;2022-10-16T12:43:11;48.28;;;22.58;;
18689;SDS011;9782;52.930;15.562;2022-10-16T12:45:58;47.70;;;22.60;;
18689;SDS011;9782;52.930;15.562;2022-10-16T12:48:27;46.78;;;22.38;;
18689;SDS011;9782;52.930;15.562;2022-10-16T12:50:55;44.95;;;21.98;;
18689;SDS011;9782;52.930;15.562;2022-10-16T12:53:24;44.47;;;22.02;;
18689;SDS011;9782;52.930;15.562;2022-10-16T12:55:58;44.97;;;21.85;;
18689;SDS011;9782;52.930;15.562;2022-10-16T12:58:37;47.15;;;22.55;;
18689;SDS011;9782;52.930;15.562;2022-10-16T13:01:19;50.33;;;23.20;;
18689;SDS011;9782;52.930;15.562;2022-10-16T13:04:02;49.75;;;22.90;;
18689;SDS011;9782;52.930;15.562;2022-10-16T13:06:43;50.40;;;23.23;;
18689;SDS011;9782;52.930;15.562;2022-10-16T13:09:22;51.35;;;23.48;;
18689;SDS011;9782;52.930;15.562;2022-10-16T13:12:01;51.65;;;23.40;;
18689;SDS011;9782;52.930;15.562;2022-10-16T13:17:39;51.80;;;23.27;;
18689;SDS011;9782;52.930;15.562;2022-10-16T13:20:17;52.22;;;23.48;;
18689;SDS011;9782;52.930;15.562;2022-10-16T13:22:51;52.80;;;23.50;;
18689;SDS011;9782;52.930;15.562;2022-10-16T13:25:30;52.38;;;23.63;;
18689;SDS011;9782;52.930;15.562;2022-10-16T13:28:07;52.83;;;23.88;;
18689;SDS011;9782;52.930;15.562;2022-10-16T13:30:37;52.28;;;23.83;;
18689;SDS011;9782;52.930;15.562;2022-10-16T13:33:07;50.08;;;23.55;;
18689;SDS011;9782;52.930;15.562;2022-10-16T13:35:46;51.33;;;23.65;;
18689;SDS011;9782;52.930;15.562;2022-10-16T13:38:15;50.70;;;23.23;;
18689;SDS011;9782;52.930;15.562;2022-10-16T13:40:52;50.70;;;23.35;;
18689;SDS011;9782;52.930;15.562;2022-10-16T13:43:22;51.38;;;23.30;;
18689;SDS011;9782;52.930;15.562;2022-10-16T13:45:52;51.83;;;23.30;;
18689;SDS011;9782;52.930;15.562;2022-10-16T13:48:21;49.42;;;22.77;;
18689;SDS011;9782;52.930;15.562;2022-10-16T13:50:57;49.05;;;22.85;;
18689;SDS011;9782;52.930;15.562;2022-10-16T13:53:26;48.20;;;22.77;;
18689;SDS011;9782;52.930;15.562;2022-10-16T13:55:57;49.05;;;22.83;;
18689;SDS011;9782;52.930;15.562;2022-10-16T13:58:25;47.70;;;22.40;;
18689;SDS011;9782;52.930;15.562;2022-10-16T14:00:56;48.08;;;22.63;;
18689;SDS011;9782;52.930;15.562;2022-10-16T14:03:25;50.13;;;23.35;;
18689;SDS011;9782;52.930;15.562;2022-10-16T14:05:53;49.08;;;22.85;;
18689;SDS011;9782;52.930;15.562;2022-10-16T14:08:23;47.40;;;22.42;;
18689;SDS011;9782;52.930;15.562;2022-10-16T14:10:52;50.33;;;23.33;;
18689;SDS011;9782;52.930;15.562;2022-10-16T14:13:25;42.67;;;21.42;;
18689;SDS011;9782;52.930;15.562;2022-10-16T14:16:02;47.30;;;22.73;;
18689;SDS011;9782;52.930;15.562;2022-10-16T14:18:34;44.38;;;22.13;;
18689;SDS011;9782;52.930;15.562;2022-10-16T14:21:07;27.15;;;17.67;;
18689;SDS011;9782;52.930;15.562;2022-10-16T14:23:43;29.52;;;18.55;;
18689;SDS011;9782;52.930;15.562;2022-10-16T14:26:15;42.90;;;21.88;;
18689;SDS011;9782;52.930;15.562;2022-10-16T14:29:00;41.35;;;21.30;;
18689;SDS011;9782;52.930;15.562;2022-10-16T14:31:37;41.90;;;21.58;;
18689;SDS011;9782;52.930;15.562;2022-10-16T14:37:05;38.80;;;20.85;;
18689;SDS011;9782;52.930;15.562;2022-10-16T14:39:41;40.25;;;20.98;;
18689;SDS011;9782;52.930;15.562;2022-10-16T14:42:16;41.03;;;21.38;;
18689;SDS011;9782;52.930;15.562;2022-10-16T14:44:53;40.92;;;21.23;;
18689;SDS011;9782;52.930;15.562;2022-10-16T14:47:23;40.60;;;21.15;;
18689;SDS011;9782;52.930;15.562;2022-10-16T14:49:53;40.00;;;20.90;;
18689;SDS011;9782;52.930;15.562;2022-10-16T14:52:24;41.92;;;21.42;;
18689;SDS011;9782;52.930;15.562;2022-10-16T14:54:57;32.92;;;18.83;;
18689;SDS011;9782;52.930;15.562;2022-10-16T14:57:30;36.83;;;20.42;;
18689;SDS011;9782;52.930;15.562;2022-10-16T15:00:27;37.85;;;20.55;;
18689;SDS011;9782;52.930;15.562;2022-10-16T15:02:55;36.10;;;20.13;;
18689;SDS011;9782;52.930;15.562;2022-10-16T15:05:31;31.40;;;19.00;;
18689;SDS011;9782;52.930;15.562;2022-10-16T15:07:59;29.50;;;18.65;;
18689;SDS011;9782;52.930;15.562;2022-10-16T15:10:27;25.63;;;17.35;;
18689;SDS011;9782;52.930;15.562;2022-10-16T15:12:55;25.55;;;17.20;;
18689;SDS011;9782;52.930;15.562;2022-10-16T15:15:37;17.20;;;14.00;;
18689;SDS011;9782;52.930;15.562;2022-10-16T15:18:07;25.08;;;17.02;;
18689;SDS011;9782;52.930;15.562;2022-10-16T15:20:35;14.80;;;13.10;;
18689;SDS011;9782;52.930;15.562;2022-10-16T15:25:34;50.40;;;23.08;;
18689;SDS011;9782;52.930;15.562;2022-10-16T15:30:30;53.03;;;23.45;;
18689;SDS011;9782;52.930;15.562;2022-10-16T15:32:59;29.88;;;18.40;;
18689;SDS011;9782;52.930;15.562;2022-10-16T15:35:26;25.77;;;18.02;;
18689;SDS011;9782;52.930;15.562;2022-10-16T15:37:53;26.88;;;17.42;;
18689;SDS011;9782;52.930;15.562;2022-10-16T15:40:21;27.73;;;17.88;;
18689;SDS011;9782;52.930;15.562;2022-10-16T15:42:48;27.65;;;17.90;;
18689;SDS011;9782;52.930;15.562;2022-10-16T15:45:16;25.50;;;17.02;;
18689;SDS011;9782;52.930;15.562;2022-10-16T15:47:44;25.48;;;17.00;;
18689;SDS011;9782;52.930;15.562;2022-10-16T15:50:13;24.70;;;16.88;;
18689;SDS011;9782;52.930;15.562;2022-10-16T15:52:41;22.17;;;16.00;;
18689;SDS011;9782;52.930;15.562;2022-10-16T15:55:09;23.23;;;16.27;;
18689;SDS011;9782;52.930;15.562;2022-10-16T15:57:37;17.63;;;14.30;;